createdAt,value
2022-11-17T00:01:52.959Z,29.12
2022-11-17T00:04:26.163Z,29.13
2022-11-17T00:06:56.999Z,29.15
2022-11-17T00:09:29.965Z,29.15
2022-11-17T00:12:22.459Z,29.13
2022-11-17T00:14:54.462Z,29.09
2022-11-17T00:17:25.802Z,29.17
2022-11-17T00:20:14.795Z,29.15
2022-11-17T00:22:45.574Z,29.13
2022-11-17T00:25:16.737Z,29.16
2022-11-17T00:27:47.648Z,29.13
2022-11-17T00:30:38.300Z,29.05
2022-11-17T00:33:28.764Z,29.15
2022-11-17T00:35:59.360Z,29.21
2022-11-17T00:38:30.220Z,29.24
2022-11-17T00:41:01.329Z,29.20
2022-11-17T00:43:31.719Z,29.31
2022-11-17T00:46:02.581Z,29.40
2022-11-17T00:48:36.286Z,29.42
2022-11-17T00:51:07.953Z,29.46
2022-11-17T00:53:38.510Z,29.55
2022-11-17T00:56:11.916Z,29.56
2022-11-17T00:58:42.388Z,29.55
2022-11-17T01:01:13.492Z,29.56
2022-11-17T01:03:44.632Z,29.60
2022-11-17T01:06:21.279Z,29.65
2022-11-17T01:08:53.124Z,29.70
2022-11-17T01:11:23.926Z,29.81
2022-11-17T01:13:58.211Z,29.79
2022-11-17T01:16:30.419Z,29.76
2022-11-17T01:19:04.395Z,29.69
2022-11-17T01:21:35.848Z,29.69
2022-11-17T01:24:07.021Z,29.75
2022-11-17T01:26:38.480Z,29.87
2022-11-17T01:29:10.120Z,30.00
2022-11-17T01:31:44.350Z,30.04
2022-11-17T01:34:15.187Z,30.06
2022-11-17T01:37:04.945Z,29.94
2022-11-17T01:39:35.560Z,29.87
2022-11-17T01:42:11.600Z,29.88
2022-11-17T01:44:56.283Z,29.91
2022-11-17T01:47:56.583Z,29.90
2022-11-17T01:50:41.493Z,29.92
2022-11-17T01:53:16.334Z,29.94
2022-11-17T01:55:53.247Z,29.98
2022-11-17T01:58:30.317Z,30.08
2022-11-17T02:01:00.684Z,30.09
2022-11-17T02:03:35.484Z,30.14
2022-11-17T02:06:25.766Z,30.14
2022-11-17T02:08:56.810Z,30.16
2022-11-17T02:11:27.738Z,30.12
2022-11-17T02:13:58.947Z,30.16
2022-11-17T02:16:29.244Z,30.19
2022-11-17T02:18:59.938Z,30.25
2022-11-17T02:21:54.082Z,30.29
2022-11-17T02:24:38.697Z,30.31
2022-11-17T02:27:27.293Z,30.42
2022-11-17T02:30:05.381Z,30.43
2022-11-17T02:32:54.143Z,30.48
2022-11-17T02:35:36.696Z,30.46
2022-11-17T02:38:25.040Z,30.52
2022-11-17T02:41:31.041Z,30.54
2022-11-17T02:44:26.389Z,30.50
2022-11-17T02:47:03.364Z,30.47
2022-11-17T02:49:41.659Z,30.59
2022-11-17T02:52:12.319Z,30.60
2022-11-17T02:54:43.171Z,30.60
2022-11-17T02:57:30.496Z,30.59
2022-11-17T03:00:05.583Z,30.58
2022-11-17T03:02:52.586Z,30.59
2022-11-17T03:06:00.706Z,30.58
2022-11-17T03:08:52.006Z,30.65
2022-11-17T03:11:30.001Z,30.62
2022-11-17T03:14:11.316Z,30.61
2022-11-17T03:17:11.655Z,30.67
2022-11-17T03:20:09.276Z,30.53
2022-11-17T03:22:56.994Z,30.54
2022-11-17T03:25:32.916Z,30.53
2022-11-17T03:28:07.770Z,30.54
2022-11-17T03:30:41.006Z,30.50
2022-11-17T03:33:21.124Z,30.52
2022-11-17T03:36:02.969Z,30.56
2022-11-17T03:38:39.054Z,30.50
2022-11-17T03:41:11.146Z,30.53
2022-11-17T03:43:42.649Z,30.54
2022-11-17T03:46:16.498Z,30.56
2022-11-17T03:49:02.100Z,30.59
2022-11-17T03:51:34.445Z,30.57
2022-11-17T03:54:05.662Z,30.61
2022-11-17T03:56:45.545Z,30.58
2022-11-17T03:59:22.543Z,30.58
2022-11-17T04:01:53.661Z,30.62
2022-11-17T04:04:24.678Z,30.62
2022-11-17T04:06:55.649Z,30.66
2022-11-17T04:09:29.640Z,30.67
2022-11-17T04:12:18.959Z,30.75
2022-11-17T04:15:07.349Z,30.75
2022-11-17T04:17:38.969Z,30.88
2022-11-17T04:20:10.479Z,31.01
2022-11-17T04:22:41.055Z,31.03
2022-11-17T04:25:31.691Z,31.17
2022-11-17T04:28:21.066Z,31.21
2022-11-17T04:30:51.481Z,31.20
2022-11-17T04:33:22.136Z,31.27
2022-11-17T04:35:52.643Z,31.42
2022-11-17T04:38:23.432Z,31.42
2022-11-17T04:41:12.945Z,31.37
2022-11-17T04:43:44.359Z,31.49
2022-11-17T04:46:15.265Z,31.53
2022-11-17T04:48:46.449Z,31.56
2022-11-17T04:51:18.460Z,31.56
2022-11-17T04:53:50.031Z,31.59
2022-11-17T04:56:21.975Z,31.61
2022-11-17T04:58:53.188Z,31.65
2022-11-17T05:01:25.197Z,31.70
2022-11-17T05:03:56.373Z,31.70
2022-11-17T05:06:27.918Z,31.70
2022-11-17T05:08:58.490Z,31.69
2022-11-17T05:11:48.292Z,31.67
2022-11-17T05:14:22.022Z,31.70
2022-11-17T05:17:12.018Z,31.74
2022-11-17T05:19:47.929Z,31.76
2022-11-17T05:22:38.940Z,31.80
2022-11-17T05:25:10.161Z,31.81
2022-11-17T05:27:40.871Z,31.79
2022-11-17T05:30:12.405Z,31.91
2022-11-17T05:32:43.229Z,31.86
2022-11-17T05:35:13.628Z,31.85
2022-11-17T05:37:44.513Z,31.85
2022-11-17T05:40:14.851Z,31.77
2022-11-17T05:42:45.737Z,31.77
2022-11-17T05:45:16.794Z,31.74
2022-11-17T05:47:47.407Z,31.71
2022-11-17T05:50:20.164Z,31.69
2022-11-17T05:52:50.658Z,31.73
2022-11-17T05:55:21.631Z,31.80
2022-11-17T05:57:52.967Z,31.89
2022-11-17T06:00:23.575Z,31.90
2022-11-17T06:03:01.172Z,31.91
2022-11-17T06:05:32.529Z,31.90
2022-11-17T06:08:03.699Z,31.87
2022-11-17T06:10:36.051Z,31.83
2022-11-17T06:13:06.900Z,31.81
2022-11-17T06:15:38.003Z,31.80
2022-11-17T06:18:13.151Z,31.80
2022-11-17T06:20:49.661Z,31.77
2022-11-17T06:23:22.214Z,31.72
2022-11-17T06:25:53.199Z,31.71
2022-11-17T06:28:24.218Z,31.67
2022-11-17T06:30:55.318Z,31.51
2022-11-17T06:33:26.971Z,31.46
2022-11-17T06:35:58.499Z,31.30
2022-11-17T06:38:30.356Z,31.22
2022-11-17T06:41:01.026Z,31.04
2022-11-17T06:43:33.600Z,30.94
2022-11-17T06:46:06.571Z,30.86
2022-11-17T06:48:40.987Z,30.82
2022-11-17T06:51:11.574Z,30.83
2022-11-17T06:53:42.686Z,30.76
2022-11-17T06:56:15.008Z,30.75
2022-11-17T06:58:46.285Z,30.77
2022-11-17T07:01:19.916Z,30.69
2022-11-17T07:03:50.576Z,30.70
2022-11-17T07:06:21.304Z,30.72
2022-11-17T07:08:52.711Z,30.72
2022-11-17T07:11:23.078Z,30.71
2022-11-17T07:13:54.028Z,30.73
2022-11-17T07:16:24.603Z,30.72
2022-11-17T07:18:56.216Z,30.71
2022-11-17T07:21:27.739Z,30.67
2022-11-17T07:23:58.057Z,30.67
2022-11-17T07:26:29.281Z,30.68
2022-11-17T07:28:59.679Z,30.66
2022-11-17T07:31:30.561Z,30.70
2022-11-17T07:34:00.956Z,30.68
2022-11-17T07:36:31.616Z,30.70
2022-11-17T07:39:02.571Z,30.71
2022-11-17T07:41:34.080Z,30.71
2022-11-17T07:44:05.183Z,30.72
2022-11-17T07:46:36.842Z,30.71
2022-11-17T07:49:07.476Z,30.74
2022-11-17T07:51:38.094Z,30.74
2022-11-17T07:54:08.491Z,30.75
2022-11-17T07:56:39.112Z,30.79
2022-11-17T07:59:09.960Z,30.77
2022-11-17T08:01:41.048Z,30.78
2022-11-17T08:04:12.640Z,30.81
2022-11-17T08:06:42.956Z,30.82
2022-11-17T08:09:15.258Z,30.82
2022-11-17T08:11:47.214Z,30.78
2022-11-17T08:14:17.961Z,30.81
2022-11-17T08:16:48.901Z,30.87
2022-11-17T08:19:19.309Z,30.82
2022-11-17T08:21:51.896Z,30.87
2022-11-17T08:24:22.275Z,30.92
2022-11-17T08:26:54.644Z,30.91
2022-11-17T08:29:26.287Z,30.94
2022-11-17T08:31:56.956Z,30.90
2022-11-17T08:34:27.311Z,30.89
2022-11-17T08:36:57.728Z,30.85
2022-11-17T08:39:28.104Z,30.84
2022-11-17T08:42:01.324Z,30.84
2022-11-17T08:44:32.495Z,30.84
2022-11-17T08:47:04.025Z,30.84
2022-11-17T08:49:34.858Z,30.82
2022-11-17T08:52:06.852Z,30.78
2022-11-17T08:54:37.285Z,30.76
2022-11-17T08:57:08.264Z,30.73
2022-11-17T08:59:39.160Z,30.77
2022-11-17T09:02:09.845Z,30.66
2022-11-17T09:04:43.009Z,30.64
2022-11-17T09:07:13.381Z,30.58
2022-11-17T09:09:44.891Z,30.66
2022-11-17T09:12:15.626Z,30.71
2022-11-17T09:14:46.254Z,30.70
2022-11-17T09:17:17.303Z,30.71
2022-11-17T09:19:47.622Z,30.69
2022-11-17T09:22:21.168Z,30.69
2022-11-17T09:24:51.628Z,30.70
2022-11-17T09:27:22.369Z,30.67
2022-11-17T09:29:53.427Z,30.68
2022-11-17T09:32:23.989Z,30.73
2022-11-17T09:34:54.821Z,30.80
2022-11-17T09:37:27.576Z,30.79
2022-11-17T09:39:58.301Z,30.85
2022-11-17T09:42:32.564Z,30.82
2022-11-17T09:45:17.231Z,30.83
2022-11-17T09:48:34.038Z,30.79
2022-11-17T09:50:59.156Z,30.78
2022-11-17T09:53:41.081Z,30.75
2022-11-17T09:56:13.669Z,30.70
2022-11-17T09:58:48.208Z,30.68
2022-11-17T10:01:20.620Z,30.71
2022-11-17T10:03:52.510Z,30.70
2022-11-17T10:06:30.902Z,30.71
2022-11-17T10:09:31.082Z,30.73
2022-11-17T10:12:22.569Z,30.67
2022-11-17T10:14:54.720Z,30.59
2022-11-17T10:17:25.476Z,30.56
2022-11-17T10:19:58.542Z,30.50
2022-11-17T10:22:37.449Z,30.51
2022-11-17T10:25:41.412Z,30.50
2022-11-17T10:28:28.050Z,30.51
2022-11-17T10:31:02.088Z,30.48
2022-11-17T10:33:50.169Z,30.48
2022-11-17T10:36:33.622Z,30.45
2022-11-17T10:39:04.237Z,30.39
2022-11-17T10:41:43.712Z,30.39
2022-11-17T10:44:26.444Z,30.36
2022-11-17T10:47:02.394Z,30.37
2022-11-17T10:49:36.088Z,30.34
2022-11-17T10:52:19.654Z,30.32
2022-11-17T10:54:50.778Z,30.30
2022-11-17T10:57:26.456Z,30.31
2022-11-17T10:59:58.500Z,30.32
2022-11-17T11:02:40.350Z,30.32
2022-11-17T11:05:14.079Z,30.37
2022-11-17T11:07:46.025Z,30.37
2022-11-17T11:10:19.630Z,30.36
2022-11-17T11:13:14.651Z,30.38
2022-11-17T11:15:46.512Z,30.32
2022-11-17T11:18:20.913Z,30.37
2022-11-17T11:21:18.211Z,30.34
2022-11-17T11:24:15.739Z,30.30
2022-11-17T11:27:07.233Z,30.22
2022-11-17T11:29:51.898Z,30.17
2022-11-17T11:32:54.048Z,30.14
2022-11-17T11:36:03.893Z,30.09
2022-11-17T11:38:43.218Z,30.03
2022-11-17T11:41:22.571Z,30.05
2022-11-17T11:44:31.584Z,30.00
2022-11-17T11:47:33.381Z,29.90
2022-11-17T11:50:25.687Z,29.87
2022-11-17T11:53:05.075Z,29.83
2022-11-17T11:55:37.325Z,29.78
2022-11-17T11:58:19.749Z,29.79
2022-11-17T12:01:13.037Z,29.76
2022-11-17T12:04:26.734Z,29.82
2022-11-17T12:07:08.267Z,29.74
2022-11-17T12:09:44.536Z,29.82
2022-11-17T12:12:21.385Z,29.90
2022-11-17T12:15:20.610Z,29.97
2022-11-17T12:17:54.392Z,29.94
2022-11-17T12:20:41.661Z,29.99
2022-11-17T12:23:30.544Z,30.02
2022-11-17T12:26:02.373Z,29.99
2022-11-17T12:28:42.772Z,30.05
2022-11-17T12:31:26.149Z,30.05
2022-11-17T12:34:03.475Z,30.03
2022-11-17T12:36:35.560Z,30.01
2022-11-17T12:39:09.951Z,30.00
2022-11-17T12:41:53.436Z,29.99
2022-11-17T12:44:44.958Z,29.97
2022-11-17T12:47:31.996Z,29.97
2022-11-17T12:50:14.183Z,29.92
2022-11-17T12:53:27.276Z,29.97
2022-11-17T12:56:06.802Z,29.94
2022-11-17T12:58:55.525Z,29.91
2022-11-17T13:01:47.318Z,29.91
2022-11-17T13:04:49.355Z,29.91
2022-11-17T13:07:23.655Z,29.88
2022-11-17T13:09:59.455Z,29.88
2022-11-17T13:12:34.181Z,29.82
2022-11-17T13:15:07.349Z,29.77
2022-11-17T13:17:46.118Z,29.75
2022-11-17T13:20:28.736Z,29.79
2022-11-17T13:23:07.659Z,29.86
2022-11-17T13:25:38.018Z,29.85
2022-11-17T13:28:29.332Z,29.85
2022-11-17T13:31:01.512Z,30.10
2022-11-17T13:33:39.563Z,30.13
2022-11-17T13:36:18.670Z,29.83
2022-11-17T13:38:51.524Z,29.82
2022-11-17T13:41:25.413Z,29.83
2022-11-17T13:43:56.486Z,29.81
2022-11-17T13:46:27.391Z,30.04
2022-11-17T13:48:58.627Z,29.83
2022-11-17T13:51:43.101Z,29.81
2022-11-17T13:54:13.943Z,29.77
2022-11-17T13:56:47.471Z,29.78
2022-11-17T13:59:32.465Z,29.79
2022-11-17T14:02:17.956Z,29.79
2022-11-17T14:05:17.836Z,29.76
2022-11-17T14:07:49.157Z,29.67
2022-11-17T14:10:29.068Z,29.71
2022-11-17T14:13:04.200Z,29.71
2022-11-17T14:15:40.487Z,29.68
2022-11-17T14:18:43.098Z,29.72
2022-11-17T14:21:19.867Z,29.67
2022-11-17T14:24:04.040Z,29.64
2022-11-17T14:26:35.084Z,29.66
2022-11-17T14:29:05.916Z,29.62
2022-11-17T14:31:36.526Z,29.65
2022-11-17T14:34:07.568Z,29.64
2022-11-17T14:36:40.101Z,29.64
2022-11-17T14:39:16.680Z,29.62
2022-11-17T14:41:48.396Z,29.59
2022-11-17T14:44:19.157Z,29.59
2022-11-17T14:46:49.887Z,29.58
2022-11-17T14:49:20.452Z,29.56
2022-11-17T14:51:51.109Z,29.52
2022-11-17T14:54:21.426Z,29.48
2022-11-17T14:56:52.041Z,29.44
2022-11-17T14:59:22.343Z,29.38
2022-11-17T15:01:54.967Z,29.31
2022-11-17T15:04:49.361Z,29.31
2022-11-17T15:07:17.387Z,29.25
2022-11-17T15:09:48.887Z,29.24
2022-11-17T15:12:20.594Z,29.23
2022-11-17T15:14:51.306Z,29.24
2022-11-17T15:17:21.863Z,29.23
2022-11-17T15:19:52.765Z,29.24
2022-11-17T15:22:24.322Z,29.19
2022-11-17T15:24:57.219Z,29.16
2022-11-17T15:27:27.830Z,29.18
2022-11-17T15:29:58.988Z,29.14
2022-11-17T15:32:29.714Z,29.12
2022-11-17T15:35:16.026Z,29.11
2022-11-17T15:37:49.319Z,29.07
2022-11-17T15:40:20.057Z,29.06
2022-11-17T15:42:54.801Z,29.05
2022-11-17T15:45:25.703Z,29.05
2022-11-17T15:47:56.319Z,29.03
2022-11-17T15:50:28.080Z,29.00
2022-11-17T15:53:04.105Z,28.99
2022-11-17T15:55:38.101Z,29.00
2022-11-17T15:58:08.752Z,28.97
2022-11-17T16:00:41.231Z,28.97
2022-11-17T16:03:11.859Z,28.95
2022-11-17T16:05:42.464Z,28.95
2022-11-17T16:08:15.872Z,28.95
2022-11-17T16:10:46.783Z,28.92
2022-11-17T16:13:18.146Z,28.92
2022-11-17T16:15:53.561Z,29.15
2022-11-17T16:18:24.525Z,29.21
2022-11-17T16:20:57.873Z,28.94
2022-11-17T16:23:31.025Z,28.91
2022-11-17T16:26:03.218Z,28.88
2022-11-17T16:28:33.819Z,28.86
2022-11-17T16:31:21.434Z,28.87
2022-11-17T16:34:02.283Z,28.86
2022-11-17T16:36:38.070Z,28.83
2022-11-17T16:39:12.725Z,28.82
2022-11-17T16:41:46.259Z,28.82
2022-11-17T16:44:18.734Z,28.80
2022-11-17T16:46:50.868Z,28.79
2022-11-17T16:49:22.121Z,28.78
2022-11-17T16:51:57.172Z,28.81
2022-11-17T16:54:28.753Z,28.79
2022-11-17T16:56:59.534Z,28.78
2022-11-17T16:59:29.753Z,28.79
2022-11-17T17:02:00.500Z,28.76
2022-11-17T17:04:31.814Z,28.75
2022-11-17T17:07:02.383Z,28.74
2022-11-17T17:09:34.496Z,28.77
2022-11-17T17:12:06.985Z,28.73
2022-11-17T17:14:37.920Z,28.71
2022-11-17T17:17:08.174Z,28.72
2022-11-17T17:19:39.625Z,28.73
2022-11-17T17:22:10.219Z,28.68
2022-11-17T17:24:40.711Z,28.58
2022-11-17T17:27:11.840Z,28.47
2022-11-17T17:29:43.885Z,28.38
2022-11-17T17:32:14.148Z,28.37
2022-11-17T17:34:44.752Z,28.38
2022-11-17T17:37:15.256Z,28.38
2022-11-17T17:39:45.669Z,28.33
2022-11-17T17:42:16.574Z,28.29
2022-11-17T17:44:47.036Z,28.28
2022-11-17T17:47:17.866Z,28.25
2022-11-17T17:49:48.165Z,28.25
2022-11-17T17:52:19.883Z,28.25
2022-11-17T17:54:51.145Z,28.19
2022-11-17T17:57:29.915Z,28.20
2022-11-17T18:00:08.135Z,28.19
2022-11-17T18:02:38.398Z,28.21
2022-11-17T18:05:09.293Z,28.18
2022-11-17T18:07:40.187Z,28.18
2022-11-17T18:10:11.269Z,28.22
2022-11-17T18:12:45.453Z,28.22
2022-11-17T18:15:16.327Z,28.23
2022-11-17T18:17:47.390Z,28.18
2022-11-17T18:20:18.170Z,28.17
2022-11-17T18:22:48.669Z,28.14
2022-11-17T18:25:21.532Z,28.14
2022-11-17T18:27:53.476Z,28.15
2022-11-17T18:30:26.782Z,28.11
2022-11-17T18:33:02.814Z,28.08
2022-11-17T18:35:35.044Z,28.04
2022-11-17T18:38:05.545Z,28.04
2022-11-17T18:40:37.167Z,28.01
2022-11-17T18:43:07.524Z,28.05
2022-11-17T18:45:39.334Z,28.00
2022-11-17T18:48:10.769Z,27.99
2022-11-17T18:51:17.328Z,27.94
2022-11-17T18:53:36.181Z,27.94
2022-11-17T18:56:17.509Z,27.94
2022-11-17T18:58:48.092Z,27.94
2022-11-17T19:01:26.293Z,27.95
2022-11-17T19:03:59.257Z,27.91
2022-11-17T19:06:30.995Z,27.93
2022-11-17T19:09:02.212Z,27.92
2022-11-17T19:11:35.463Z,27.91
2022-11-17T19:14:06.979Z,27.91
2022-11-17T19:16:44.847Z,27.90
2022-11-17T19:19:15.987Z,27.88
2022-11-17T19:21:49.743Z,27.89
2022-11-17T19:24:20.244Z,27.86
2022-11-17T19:26:50.787Z,27.82
2022-11-17T19:29:22.047Z,27.81
2022-11-17T19:31:53.612Z,27.83
2022-11-17T19:34:24.136Z,27.79
2022-11-17T19:36:54.723Z,27.80
2022-11-17T19:39:26.301Z,27.78
2022-11-17T19:41:56.851Z,27.77
2022-11-17T19:44:29.632Z,27.78
2022-11-17T19:47:00.914Z,27.76
2022-11-17T19:49:31.872Z,27.76
2022-11-17T19:52:02.325Z,27.75
2022-11-17T19:54:33.218Z,27.72
2022-11-17T19:57:04.264Z,27.72
2022-11-17T19:59:34.533Z,27.73
2022-11-17T20:02:04.898Z,27.72
2022-11-17T20:04:35.753Z,27.75
2022-11-17T20:07:06.812Z,27.73
2022-11-17T20:09:40.643Z,27.73
2022-11-17T20:12:12.415Z,27.71
2022-11-17T20:14:43.335Z,27.73
2022-11-17T20:17:14.067Z,27.74
2022-11-17T20:19:44.949Z,27.74
2022-11-17T20:22:18.359Z,27.67
2022-11-17T20:24:49.291Z,27.66
2022-11-17T20:27:19.598Z,27.65
2022-11-17T20:29:50.498Z,27.67
2022-11-17T20:32:20.877Z,27.67
2022-11-17T20:34:51.580Z,27.69
2022-11-17T20:37:23.671Z,27.67
2022-11-17T20:39:54.052Z,27.67
2022-11-17T20:42:24.485Z,27.67
2022-11-17T20:44:55.027Z,27.68
2022-11-17T20:47:28.393Z,27.63
2022-11-17T20:49:58.917Z,27.62
2022-11-17T20:52:29.536Z,27.61
2022-11-17T20:55:01.810Z,27.60
2022-11-17T20:57:32.598Z,27.60
2022-11-17T21:00:02.773Z,27.57
2022-11-17T21:02:36.779Z,27.53
2022-11-17T21:05:08.247Z,27.52
2022-11-17T21:07:39.822Z,27.52
2022-11-17T21:10:11.123Z,27.51
2022-11-17T21:12:42.137Z,27.57
2022-11-17T21:15:13.530Z,27.52
2022-11-17T21:18:02.218Z,27.54
2022-11-17T21:20:35.808Z,27.55
2022-11-17T21:23:06.674Z,27.54
2022-11-17T21:25:39.492Z,27.60
2022-11-17T21:28:10.400Z,27.59
2022-11-17T21:30:43.290Z,27.56
2022-11-17T21:33:14.113Z,27.55
2022-11-17T21:35:45.306Z,27.59
2022-11-17T21:38:18.858Z,27.53
2022-11-17T21:40:49.259Z,27.49
2022-11-17T21:43:20.218Z,27.49
2022-11-17T21:45:50.741Z,27.50
2022-11-17T21:48:21.384Z,27.49
2022-11-17T21:50:54.375Z,27.47
2022-11-17T21:53:25.148Z,27.48
2022-11-17T21:56:02.481Z,27.53
2022-11-17T21:58:34.374Z,27.52
2022-11-17T22:01:10.572Z,27.53
2022-11-17T22:03:42.281Z,27.51
2022-11-17T22:06:19.084Z,27.48
2022-11-17T22:08:50.891Z,27.49
2022-11-17T22:11:39.319Z,27.51
2022-11-17T22:14:14.713Z,27.49
2022-11-17T22:16:50.330Z,27.50
2022-11-17T22:19:22.293Z,27.49
2022-11-17T22:21:54.625Z,27.48
2022-11-17T22:24:25.399Z,27.47
2022-11-17T22:26:56.232Z,27.47
2022-11-17T22:29:26.830Z,27.47
2022-11-17T22:31:57.457Z,27.45
2022-11-17T22:34:28.296Z,27.51
2022-11-17T22:36:59.669Z,27.49
2022-11-17T22:39:30.828Z,27.49
2022-11-17T22:42:01.205Z,27.49
2022-11-17T22:44:31.690Z,27.49
2022-11-17T22:47:03.069Z,27.46
2022-11-17T22:49:34.336Z,27.49
2022-11-17T22:52:04.967Z,27.51
2022-11-17T22:54:36.435Z,27.47
2022-11-17T22:57:07.465Z,27.51
2022-11-17T22:59:38.054Z,27.55
2022-11-17T23:02:08.970Z,27.47
2022-11-17T23:04:42.239Z,27.45
2022-11-17T23:07:13.151Z,27.47
2022-11-17T23:09:43.841Z,27.46
2022-11-17T23:12:15.661Z,27.41
2022-11-17T23:14:46.527Z,27.44
2022-11-17T23:17:19.288Z,27.47
2022-11-17T23:19:50.265Z,27.47
2022-11-17T23:22:21.507Z,27.47
2022-11-17T23:24:52.184Z,27.48
2022-11-17T23:27:23.491Z,27.41
2022-11-17T23:29:57.419Z,27.42
2022-11-17T23:32:28.173Z,27.47
2022-11-17T23:34:58.991Z,27.54
2022-11-17T23:37:30.259Z,27.53
2022-11-17T23:40:00.578Z,27.53
2022-11-17T23:42:40.103Z,27.55
2022-11-17T23:45:14.431Z,27.57
2022-11-17T23:47:45.040Z,27.65
2022-11-17T23:50:16.956Z,27.61
2022-11-17T23:52:47.619Z,27.65
2022-11-17T23:55:19.124Z,27.63
2022-11-17T23:57:50.534Z,27.61
